Aviation Digital Data Service (ADDS)

Output produced by TAFs form (1615 UTC 01 October 2014)
found at http://aviationweather.gov/adds/tafs/
 
KTCC 011120Z 0112/0212 27010KT P6SM SKC 
     FM011800 22008KT P6SM SKC 
     FM012100 23013G22KT P6SM SKC 
     FM020200 28008KT P6SM SKC 
     FM021000 35016G26KT P6SM SKC